• pl
  • eng

Awiacja
TAF FT 21:30 16.12.2018
  • WIND
  • SIGNIFICANT EURO
  • SIGNIFICANT
  • SIGMET
  • AIRMET
  • TAF FC
  • TAF FT
  • METAR GG30
  • METAR GG00


TAF EPBY 161730Z 1618/1718 15005KT 9999 BKN025
TEMPO 1622/1707 2000 BR
TEMPO 1709/1718 3000 -SN BR BKN008=

TAF EPGD 161730Z 1618/1718 18005KT 8000 BKN010
PROB40 1618/1620 4000 -SN BR BKN005
BECMG 1619/1621 SCT010
PROB40 1623/1708 3000 BR
PROB40 TEMPO 1709/1718 4000 -SN BR BKN010=

TAF EPKK 162030Z 1621/1721 04003KT 3500 BR NSC
PROB30 1621/1623 2000 BR
BECMG 1623/1702 0500 FZFG OVC001
TEMPO 1702/1706 0100 FZFG
BECMG 1706/1709 2000 BR BKN005
BECMG 1709/1712 7000 BKN023
BECMG 1715/1718 3500 -SN BR BKN013=

TAF AMD EPKT 162101Z 1621/1718 14006KT 5000 BR NSC
TEMPO 1621/1706 4000 BR BKN004
BECMG 1713/1715 3500 -SN BR BKN013
TEMPO 1715/1718 BKN006=

TAF EPLL 161730Z 1618/1718 16005KT 7000 BKN020
PROB40 1618/1708 3000 BR
PROB40 1714/1718 3000 -SN BR BKN005=

TAF EPMO 161730Z 1618/1718 16005KT 8000 BKN020
PROB40 1620/1708 3000 BR
PROB40 TEMPO 1702/1708 BKN005
BECMG 1714/1716 3000 BR=

TAF EPPO 161721Z 1618/1718 16010KT 9999 BKN020
TEMPO 1702/1718 4500 -SN BR BKN008
PROB40 TEMPO 1706/1718 2500 -SN BR BKN004=

TAF AMD EPRZ 161800Z 1618/1718 09005KT 4700 BR OVC016
TEMPO 1618/1624 2000 BR BKN006
TEMPO 1700/1707 1400 BR BKN002
BECMG 1707/1709 9999 NSW BKN023
BECMG 1715/1718 BKN011=

TAF EPSC 161730Z 1618/1718 15005KT 9999 BKN025
BECMG 1701/1703 3000 BR BKN010
TEMPO 1702/1708 1500 -SN BR BKN005
TEMPO 1708/1718 1500 BR BKN005=

TAF EPWA 162030Z 1621/1721 15005KT 9999 BKN030
PROB40 1621/1708 4000 BR
PROB40 TEMPO 1702/1708 BKN007
BECMG 1715/1717 4000 BR=

TAF EPWR 162030Z 1621/1721 13004KT CAVOK
PROB40 1702/1706 4000 BR BKN009 BKN016
BECMG 1706/1709 4000 -SN BR BKN005 OVC013=
Awiacja.imgw.pl jest pogodowym serwisem informacyjnym
Instytutu Meteorologii i Gospodarki Wodnej Państwowego Instytutu Badawczego.
Copyright IMGW PIB 2009-2011© Wszelkie prawa zastrzeżone.